createdAt,value
2023-06-30T00:01:41.325Z,5.80
2023-06-30T00:04:08.697Z,4.80
2023-06-30T00:06:35.854Z,5.25
2023-06-30T00:09:05.291Z,4.97
2023-06-30T00:11:32.696Z,5.40
2023-06-30T00:13:59.945Z,5.13
2023-06-30T00:16:27.244Z,4.50
2023-06-30T00:18:57.230Z,4.13
2023-06-30T00:21:24.430Z,4.88
2023-06-30T00:23:51.515Z,4.70
2023-06-30T00:26:18.596Z,5.07
2023-06-30T00:28:45.790Z,5.30
2023-06-30T00:31:12.835Z,5.30
2023-06-30T00:33:39.960Z,4.65
2023-06-30T00:36:07.103Z,4.32
2023-06-30T00:38:34.274Z,4.50
2023-06-30T00:41:01.471Z,5.10
2023-06-30T00:43:28.558Z,4.72
2023-06-30T00:45:56.056Z,4.20
2023-06-30T00:48:23.431Z,4.18
2023-06-30T00:50:51.032Z,4.30
2023-06-30T00:53:18.457Z,4.30
2023-06-30T00:55:46.309Z,3.90
2023-06-30T00:58:13.662Z,3.78
2023-06-30T01:00:40.796Z,4.20
2023-06-30T01:03:31.876Z,4.03
2023-06-30T01:06:22.671Z,4.75
2023-06-30T01:09:06.772Z,4.57
2023-06-30T01:11:35.320Z,3.80
2023-06-30T01:14:05.889Z,4.00
2023-06-30T01:16:34.670Z,4.40
2023-06-30T01:19:07.522Z,4.20
2023-06-30T01:21:35.433Z,4.35
2023-06-30T01:24:10.672Z,3.92
2023-06-30T01:26:38.699Z,4.65
2023-06-30T01:29:08.055Z,4.28
2023-06-30T01:31:35.476Z,3.83
2023-06-30T01:34:03.892Z,4.53
2023-06-30T01:36:31.045Z,4.53
2023-06-30T01:38:58.080Z,4.57
2023-06-30T01:41:25.418Z,4.25
2023-06-30T01:43:52.989Z,4.40
2023-06-30T01:46:20.268Z,4.38
2023-06-30T01:48:47.884Z,4.88
2023-06-30T01:51:16.597Z,4.40
2023-06-30T01:53:43.678Z,4.45
2023-06-30T01:56:11.094Z,4.18
2023-06-30T01:58:38.206Z,4.43
2023-06-30T02:01:05.398Z,4.63
2023-06-30T02:03:32.582Z,4.88
2023-06-30T02:05:59.692Z,5.90
2023-06-30T02:08:26.806Z,4.90
2023-06-30T02:10:53.900Z,4.60
2023-06-30T02:13:20.925Z,4.43
2023-06-30T02:15:48.282Z,4.95
2023-06-30T02:18:15.465Z,4.65
2023-06-30T02:20:42.547Z,5.45
2023-06-30T02:23:09.664Z,4.15
2023-06-30T02:25:36.730Z,4.90
2023-06-30T02:28:04.044Z,4.82
2023-06-30T02:30:31.192Z,4.32
2023-06-30T02:32:59.019Z,4.60
2023-06-30T02:35:26.362Z,5.05
2023-06-30T02:37:53.524Z,4.57
2023-06-30T02:40:20.653Z,4.65
2023-06-30T02:42:47.850Z,4.90
2023-06-30T02:45:14.963Z,4.80
2023-06-30T02:47:42.050Z,5.30
2023-06-30T02:50:09.579Z,4.80
2023-06-30T02:52:36.713Z,5.47
2023-06-30T02:55:04.190Z,4.70
2023-06-30T02:57:31.234Z,4.70
2023-06-30T02:59:58.387Z,5.28
2023-06-30T03:02:25.808Z,5.43
2023-06-30T03:04:53.026Z,4.70
2023-06-30T03:07:20.154Z,5.05
2023-06-30T03:09:47.302Z,5.20
2023-06-30T03:12:14.691Z,4.85
2023-06-30T03:14:41.903Z,5.30
2023-06-30T03:17:09.046Z,5.60
2023-06-30T03:19:36.251Z,5.53
2023-06-30T03:22:03.379Z,5.65
2023-06-30T03:24:30.541Z,4.75
2023-06-30T03:26:58.011Z,5.00
2023-06-30T03:29:25.061Z,5.13
2023-06-30T03:31:52.207Z,5.55
2023-06-30T03:34:19.290Z,5.45
2023-06-30T03:36:46.438Z,5.72
2023-06-30T03:39:13.550Z,5.70
2023-06-30T03:41:40.711Z,5.50
2023-06-30T03:44:07.800Z,5.93
2023-06-30T03:46:35.514Z,6.10
2023-06-30T03:49:02.624Z,5.53
2023-06-30T03:51:29.850Z,5.82
2023-06-30T03:53:56.937Z,5.80
2023-06-30T03:56:24.200Z,6.07
2023-06-30T03:58:51.272Z,5.80
2023-06-30T04:01:18.337Z,5.60
2023-06-30T04:03:45.610Z,5.32
2023-06-30T04:06:12.933Z,5.65
2023-06-30T04:08:40.061Z,6.38
2023-06-30T04:11:07.163Z,5.70
2023-06-30T04:13:34.361Z,5.65
2023-06-30T04:16:01.556Z,6.03
2023-06-30T04:18:28.710Z,5.47
2023-06-30T04:20:55.770Z,5.60
2023-06-30T04:23:22.808Z,5.80
2023-06-30T04:25:49.893Z,6.38
2023-06-30T04:28:17.189Z,6.40
2023-06-30T04:30:44.352Z,5.63
2023-06-30T04:33:11.402Z,5.95
2023-06-30T04:35:38.580Z,5.70
2023-06-30T04:38:05.733Z,5.07
2023-06-30T04:40:32.945Z,5.85
2023-06-30T04:43:01.518Z,5.35
2023-06-30T04:45:28.931Z,5.72
2023-06-30T04:47:56.343Z,6.28
2023-06-30T04:50:26.222Z,5.43
2023-06-30T04:52:53.433Z,5.25
2023-06-30T04:55:20.574Z,5.13
2023-06-30T04:57:47.685Z,5.20
2023-06-30T05:00:15.513Z,4.80
2023-06-30T05:02:42.757Z,4.70
2023-06-30T05:05:09.962Z,4.65
2023-06-30T05:07:37.164Z,4.22
2023-06-30T05:10:04.436Z,4.32
2023-06-30T05:12:31.607Z,4.32
2023-06-30T05:14:58.650Z,4.43
2023-06-30T05:17:26.018Z,4.13
2023-06-30T05:19:53.218Z,4.70
2023-06-30T05:22:20.372Z,3.75
2023-06-30T05:24:47.525Z,3.97
2023-06-30T05:27:15.411Z,4.05
2023-06-30T05:29:42.503Z,3.80
2023-06-30T05:32:09.750Z,4.18
2023-06-30T05:34:36.832Z,4.00
2023-06-30T05:37:04.229Z,4.13
2023-06-30T05:39:31.358Z,3.30
2023-06-30T05:42:03.173Z,4.22
2023-06-30T05:44:30.357Z,3.58
2023-06-30T05:46:57.562Z,3.28
2023-06-30T05:49:26.508Z,3.17
2023-06-30T05:51:53.614Z,3.92
2023-06-30T05:54:20.805Z,3.40
2023-06-30T05:56:48.138Z,3.22
2023-06-30T05:59:15.255Z,3.00
2023-06-30T06:01:42.341Z,3.10
2023-06-30T06:04:12.075Z,3.30
2023-06-30T06:06:39.778Z,3.28
2023-06-30T06:09:07.590Z,3.67
2023-06-30T06:11:34.732Z,3.58
2023-06-30T06:14:01.871Z,3.38
2023-06-30T06:16:29.037Z,3.20
2023-06-30T06:18:56.265Z,3.33
2023-06-30T06:21:28.613Z,3.38
2023-06-30T06:23:56.791Z,2.92
2023-06-30T06:26:24.018Z,3.20
2023-06-30T06:28:51.195Z,2.83
2023-06-30T06:31:18.393Z,2.65
2023-06-30T06:33:45.566Z,3.17
2023-06-30T06:36:12.751Z,2.97
2023-06-30T06:38:40.007Z,3.00
2023-06-30T06:41:07.054Z,3.55
2023-06-30T06:43:34.215Z,3.10
2023-06-30T06:46:01.355Z,3.47
2023-06-30T06:48:29.740Z,3.10
2023-06-30T06:50:59.346Z,3.38
2023-06-30T06:53:31.906Z,3.00
2023-06-30T06:55:59.111Z,3.00
2023-06-30T06:58:32.564Z,2.70
2023-06-30T07:01:00.095Z,2.63
2023-06-30T07:03:27.409Z,3.03
2023-06-30T07:05:56.388Z,2.53
2023-06-30T07:08:23.761Z,2.72
2023-06-30T07:10:51.736Z,2.70
2023-06-30T07:13:21.213Z,3.15
2023-06-30T07:15:49.976Z,2.70
2023-06-30T07:18:19.981Z,2.85
2023-06-30T07:20:55.385Z,3.00
2023-06-30T07:23:25.405Z,2.53
2023-06-30T07:25:53.860Z,3.15
2023-06-30T07:28:20.981Z,3.25
2023-06-30T07:30:48.731Z,3.17
2023-06-30T07:33:15.788Z,2.92
2023-06-30T07:35:43.404Z,3.00
2023-06-30T07:38:11.144Z,3.10
2023-06-30T07:40:51.072Z,3.08
2023-06-30T07:43:21.848Z,3.28
2023-06-30T07:45:49.496Z,3.30
2023-06-30T07:48:17.002Z,2.45
2023-06-30T07:50:54.760Z,3.30
2023-06-30T07:53:30.798Z,2.83
2023-06-30T07:55:57.864Z,3.47
2023-06-30T07:58:25.046Z,3.55
2023-06-30T08:00:52.139Z,3.63
2023-06-30T08:03:19.619Z,3.05
2023-06-30T08:05:47.714Z,2.88
2023-06-30T08:08:15.501Z,2.50
2023-06-30T08:10:44.714Z,2.47
2023-06-30T08:13:12.308Z,2.53
2023-06-30T08:15:39.463Z,2.63
2023-06-30T08:18:10.314Z,2.08
2023-06-30T08:20:38.203Z,2.60
2023-06-30T08:23:05.586Z,2.33
2023-06-30T08:25:32.783Z,1.92
2023-06-30T08:28:00.084Z,2.17
2023-06-30T08:30:27.258Z,1.95
2023-06-30T08:32:55.951Z,2.33
2023-06-30T08:35:24.901Z,2.17
2023-06-30T08:37:53.833Z,2.00
2023-06-30T08:40:27.069Z,2.20
2023-06-30T08:42:56.421Z,2.13
2023-06-30T08:45:29.519Z,2.10
2023-06-30T08:48:07.344Z,2.20
2023-06-30T08:50:35.065Z,2.13
2023-06-30T08:53:03.340Z,1.95
2023-06-30T08:55:31.253Z,2.25
2023-06-30T08:58:04.292Z,2.25
2023-06-30T09:00:37.201Z,2.50
2023-06-30T09:03:07.580Z,2.30
2023-06-30T09:05:39.764Z,2.15
2023-06-30T09:08:29.579Z,2.50
2023-06-30T09:10:57.767Z,1.98
2023-06-30T09:13:25.649Z,2.20
2023-06-30T09:15:57.330Z,2.00
2023-06-30T09:18:25.046Z,2.28
2023-06-30T09:20:53.940Z,1.70
2023-06-30T09:23:21.162Z,1.88
2023-06-30T09:25:48.819Z,2.38
2023-06-30T09:28:16.419Z,2.92
2023-06-30T09:30:48.356Z,2.45
2023-06-30T09:33:17.890Z,2.47
2023-06-30T09:35:47.929Z,2.55
2023-06-30T09:38:19.351Z,2.05
2023-06-30T09:40:49.577Z,2.17
2023-06-30T09:43:22.347Z,2.30
2023-06-30T09:45:59.290Z,1.98
2023-06-30T09:48:46.810Z,2.13
2023-06-30T09:51:20.623Z,2.17
2023-06-30T09:53:47.796Z,1.90
2023-06-30T09:56:22.863Z,2.42
2023-06-30T09:58:57.064Z,1.80
2023-06-30T10:01:24.734Z,2.22
2023-06-30T10:03:55.996Z,2.42
2023-06-30T10:06:24.744Z,2.08
2023-06-30T10:08:52.790Z,1.70
2023-06-30T10:11:24.643Z,1.70
2023-06-30T10:13:57.020Z,2.03
2023-06-30T10:16:24.410Z,1.70
2023-06-30T10:18:52.843Z,2.15
2023-06-30T10:21:20.467Z,1.80
2023-06-30T10:23:49.628Z,2.25
2023-06-30T10:26:20.725Z,1.95
2023-06-30T10:28:49.002Z,2.20
2023-06-30T10:31:17.072Z,2.10
2023-06-30T10:33:44.411Z,2.65
2023-06-30T10:36:12.281Z,2.22
2023-06-30T10:38:41.882Z,2.00
2023-06-30T10:41:20.591Z,1.80
2023-06-30T10:44:10.441Z,1.90
2023-06-30T10:46:51.241Z,1.90
2023-06-30T10:49:42.238Z,1.80
2023-06-30T10:52:12.249Z,1.92
2023-06-30T10:54:47.672Z,1.92
2023-06-30T10:57:25.376Z,1.73
2023-06-30T11:00:13.028Z,1.70
2023-06-30T11:02:50.790Z,1.80
2023-06-30T11:05:27.639Z,1.77
2023-06-30T11:08:23.184Z,1.85
2023-06-30T11:10:51.691Z,1.85
2023-06-30T11:13:37.590Z,1.88
2023-06-30T11:16:04.957Z,2.00
2023-06-30T11:18:35.039Z,1.83
2023-06-30T11:21:07.021Z,2.20
2023-06-30T11:23:43.839Z,1.83
2023-06-30T11:26:17.647Z,1.70
2023-06-30T11:28:49.522Z,1.75
2023-06-30T11:31:17.758Z,2.55
2023-06-30T11:33:46.393Z,1.55
2023-06-30T11:36:18.858Z,2.10
2023-06-30T11:38:50.738Z,1.95
2023-06-30T11:41:24.707Z,1.98
2023-06-30T11:43:56.768Z,1.98
2023-06-30T11:46:24.724Z,2.10
2023-06-30T11:48:52.063Z,1.70
2023-06-30T11:51:19.282Z,2.25
2023-06-30T11:53:50.130Z,2.25
2023-06-30T11:56:21.034Z,2.38
2023-06-30T11:58:52.616Z,2.00
2023-06-30T12:01:22.889Z,2.17
2023-06-30T12:04:09.877Z,2.40
2023-06-30T12:06:40.188Z,2.00
2023-06-30T12:09:07.872Z,2.17
2023-06-30T12:11:35.092Z,1.90
2023-06-30T12:14:09.753Z,1.83
2023-06-30T12:16:45.120Z,1.92
2023-06-30T12:19:13.932Z,2.22
2023-06-30T12:22:04.969Z,2.50
2023-06-30T12:24:33.749Z,2.13
2023-06-30T12:27:07.916Z,2.03
2023-06-30T12:29:36.706Z,2.15
2023-06-30T12:32:15.530Z,2.05
2023-06-30T12:34:43.368Z,2.40
2023-06-30T12:37:10.680Z,2.10
2023-06-30T12:39:37.767Z,1.88
2023-06-30T12:42:05.492Z,2.35
2023-06-30T12:44:32.719Z,2.20
2023-06-30T12:47:06.574Z,2.38
2023-06-30T12:49:41.015Z,1.88
2023-06-30T12:52:08.760Z,2.28
2023-06-30T12:54:35.811Z,1.77
2023-06-30T12:57:03.075Z,2.33
2023-06-30T12:59:30.268Z,2.20
2023-06-30T13:01:57.494Z,2.42
2023-06-30T13:04:25.960Z,2.47
2023-06-30T13:06:54.633Z,2.95
2023-06-30T13:09:21.766Z,5.05
2023-06-30T13:11:48.872Z,2.55
2023-06-30T13:14:16.985Z,2.50
2023-06-30T13:16:44.076Z,3.88
2023-06-30T13:19:11.885Z,2.63
2023-06-30T13:21:39.020Z,2.50
2023-06-30T13:24:06.696Z,2.25
2023-06-30T13:26:36.165Z,2.22
2023-06-30T13:29:05.015Z,3.15
2023-06-30T13:31:32.127Z,2.78
2023-06-30T13:33:59.513Z,3.00
2023-06-30T13:36:29.362Z,5.63
2023-06-30T13:38:58.498Z,2.95
2023-06-30T13:41:28.436Z,2.95
2023-06-30T13:43:55.627Z,2.92
2023-06-30T13:46:22.863Z,2.67
2023-06-30T13:48:49.983Z,2.72
2023-06-30T13:51:17.111Z,2.90
2023-06-30T13:53:44.267Z,2.88
2023-06-30T13:56:11.341Z,2.50
2023-06-30T13:58:38.410Z,2.78
2023-06-30T14:01:06.741Z,2.67
2023-06-30T14:03:34.631Z,2.95
2023-06-30T14:06:01.905Z,2.92
2023-06-30T14:08:29.064Z,6.70
2023-06-30T14:10:57.492Z,4.32
2023-06-30T14:13:28.542Z,4.07
2023-06-30T14:15:55.671Z,2.70
2023-06-30T14:18:22.780Z,2.80
2023-06-30T14:20:49.918Z,2.55
2023-06-30T14:23:17.140Z,3.05
2023-06-30T14:25:44.806Z,2.50
2023-06-30T14:28:12.240Z,3.60
2023-06-30T14:30:39.492Z,3.22
2023-06-30T14:33:06.798Z,3.47
2023-06-30T14:35:33.931Z,5.70
2023-06-30T14:38:01.582Z,5.03
2023-06-30T14:40:31.111Z,9.07
2023-06-30T14:42:59.580Z,16.83
2023-06-30T14:45:30.978Z,11.40
2023-06-30T14:47:58.633Z,6.63
2023-06-30T14:50:27.011Z,4.20
2023-06-30T14:52:54.690Z,2.17
2023-06-30T14:55:21.848Z,3.50
2023-06-30T14:57:50.787Z,8.63
2023-06-30T15:00:18.380Z,9.65
2023-06-30T15:02:45.585Z,2.97
2023-06-30T15:05:12.841Z,3.72
2023-06-30T15:07:39.922Z,5.55
2023-06-30T15:10:07.913Z,6.40
2023-06-30T15:12:35.271Z,4.22
2023-06-30T15:15:02.558Z,4.75
2023-06-30T15:17:29.694Z,2.67
2023-06-30T15:19:56.838Z,3.63
2023-06-30T15:22:24.031Z,3.50
2023-06-30T15:24:51.184Z,3.30
2023-06-30T15:27:18.336Z,3.35
2023-06-30T15:29:45.502Z,3.03
2023-06-30T15:32:12.583Z,2.97
2023-06-30T15:34:39.726Z,2.72
2023-06-30T15:37:06.875Z,2.47
2023-06-30T15:39:34.011Z,2.50
2023-06-30T15:42:01.110Z,2.40
2023-06-30T15:44:28.178Z,2.53
2023-06-30T15:46:55.248Z,2.55
2023-06-30T15:49:22.344Z,2.38
2023-06-30T15:51:49.500Z,3.58
2023-06-30T15:54:16.731Z,2.28
2023-06-30T15:56:43.877Z,2.92
2023-06-30T15:59:10.941Z,2.38
2023-06-30T16:01:38.018Z,2.35
2023-06-30T16:04:05.419Z,2.17
2023-06-30T16:06:32.597Z,2.28
2023-06-30T16:08:59.743Z,2.67
2023-06-30T16:11:26.893Z,2.55
2023-06-30T16:13:54.001Z,2.25
2023-06-30T16:16:21.228Z,2.13
2023-06-30T16:18:50.190Z,2.05
2023-06-30T16:21:17.431Z,2.50
2023-06-30T16:23:44.480Z,3.40
2023-06-30T16:26:11.719Z,3.40
2023-06-30T16:28:38.778Z,12.80
2023-06-30T16:31:05.899Z,3.13
2023-06-30T16:33:33.106Z,3.00
2023-06-30T16:36:00.246Z,4.72
2023-06-30T16:38:27.299Z,2.35
2023-06-30T16:40:54.442Z,2.90
2023-06-30T16:43:21.939Z,2.45
2023-06-30T16:45:49.566Z,2.40
2023-06-30T16:48:17.005Z,3.20
2023-06-30T16:50:44.089Z,2.30
2023-06-30T16:53:11.119Z,2.25
2023-06-30T16:55:38.177Z,2.35
2023-06-30T16:58:05.280Z,2.42
2023-06-30T17:00:32.399Z,2.30
2023-06-30T17:02:59.517Z,2.65
2023-06-30T17:05:26.722Z,2.70
2023-06-30T17:07:53.826Z,2.70
2023-06-30T17:10:20.931Z,2.47
2023-06-30T17:12:48.023Z,3.10
2023-06-30T17:15:15.174Z,2.70
2023-06-30T17:17:42.294Z,2.33
2023-06-30T17:20:09.914Z,2.50
2023-06-30T17:22:37.067Z,2.47
2023-06-30T17:25:05.796Z,2.80
2023-06-30T17:27:33.517Z,3.00
2023-06-30T17:30:00.628Z,2.50
2023-06-30T17:32:27.839Z,2.70
2023-06-30T17:34:54.963Z,2.90
2023-06-30T17:37:22.154Z,2.50
2023-06-30T17:39:49.285Z,2.67
2023-06-30T17:42:16.664Z,2.80
2023-06-30T17:44:44.568Z,4.80
2023-06-30T17:47:11.931Z,6.15
2023-06-30T17:49:39.257Z,4.65
2023-06-30T17:52:06.728Z,3.80
2023-06-30T17:54:34.201Z,3.08
2023-06-30T17:57:01.417Z,3.38
2023-06-30T17:59:31.983Z,2.65
2023-06-30T18:01:59.827Z,2.95
2023-06-30T18:04:27.348Z,2.40
2023-06-30T18:07:09.437Z,2.42
2023-06-30T18:09:44.857Z,2.90
2023-06-30T18:12:12.595Z,2.60
2023-06-30T18:14:42.313Z,2.90
2023-06-30T18:17:10.008Z,3.25
2023-06-30T18:19:37.128Z,2.83
2023-06-30T18:22:04.422Z,2.63
2023-06-30T18:24:31.571Z,2.65
2023-06-30T18:26:59.545Z,3.10
2023-06-30T18:29:26.988Z,3.50
2023-06-30T18:31:57.457Z,3.20
2023-06-30T18:34:26.570Z,3.40
2023-06-30T18:36:53.652Z,2.80
2023-06-30T18:39:21.375Z,2.80
2023-06-30T18:41:48.546Z,3.10
2023-06-30T18:44:15.691Z,3.20
2023-06-30T18:46:43.071Z,3.55
2023-06-30T18:49:12.389Z,3.10
2023-06-30T18:51:43.068Z,3.10
2023-06-30T18:54:10.830Z,3.00
2023-06-30T18:56:38.321Z,3.33
2023-06-30T18:59:05.587Z,3.50
2023-06-30T19:01:32.927Z,3.63
2023-06-30T19:04:00.161Z,4.60
2023-06-30T19:06:27.693Z,5.72
2023-06-30T19:08:55.456Z,4.22
2023-06-30T19:11:23.395Z,3.45
2023-06-30T19:13:51.240Z,3.42
2023-06-30T19:16:18.705Z,2.70
2023-06-30T19:18:46.656Z,3.30
2023-06-30T19:21:13.961Z,3.25
2023-06-30T19:23:42.723Z,3.30
2023-06-30T19:26:11.983Z,3.30
2023-06-30T19:28:42.471Z,3.03
2023-06-30T19:31:09.683Z,3.20
2023-06-30T19:33:38.012Z,3.67
2023-06-30T19:36:05.708Z,3.45
2023-06-30T19:38:32.825Z,3.20
2023-06-30T19:41:00.009Z,3.05
2023-06-30T19:43:27.124Z,2.95
2023-06-30T19:45:54.284Z,3.80
2023-06-30T19:48:21.571Z,3.92
2023-06-30T19:50:48.738Z,3.75
2023-06-30T19:53:16.031Z,4.05
2023-06-30T19:55:43.201Z,3.90
2023-06-30T19:58:11.017Z,3.67
2023-06-30T20:00:39.251Z,3.40
2023-06-30T20:03:07.137Z,3.33
2023-06-30T20:05:34.444Z,3.65
2023-06-30T20:08:01.697Z,3.80
2023-06-30T20:10:28.834Z,3.75
2023-06-30T20:12:56.053Z,3.50
2023-06-30T20:15:23.690Z,3.85
2023-06-30T20:17:50.925Z,3.28
2023-06-30T20:20:18.247Z,3.70
2023-06-30T20:22:46.773Z,3.05
2023-06-30T20:25:15.414Z,3.67
2023-06-30T20:27:44.682Z,3.65
2023-06-30T20:30:13.756Z,3.70
2023-06-30T20:32:40.891Z,3.80
2023-06-30T20:35:09.998Z,3.90
2023-06-30T20:37:37.313Z,5.20
2023-06-30T20:40:05.154Z,4.35
2023-06-30T20:42:32.286Z,4.07
2023-06-30T20:44:59.358Z,4.13
2023-06-30T20:47:26.700Z,3.80
2023-06-30T20:49:54.304Z,3.60
2023-06-30T20:52:21.433Z,4.03
2023-06-30T20:54:48.502Z,3.72
2023-06-30T20:57:15.702Z,3.80
2023-06-30T20:59:43.109Z,3.60
2023-06-30T21:02:10.373Z,4.05
2023-06-30T21:04:37.680Z,3.60
2023-06-30T21:07:05.265Z,3.53
2023-06-30T21:09:32.389Z,3.97
2023-06-30T21:12:01.510Z,3.78
2023-06-30T21:14:28.890Z,4.10
2023-06-30T21:16:56.036Z,3.70
2023-06-30T21:19:23.788Z,3.55
2023-06-30T21:21:50.897Z,3.63
2023-06-30T21:24:18.167Z,3.35
2023-06-30T21:26:45.288Z,3.97
2023-06-30T21:29:12.601Z,4.15
2023-06-30T21:31:39.955Z,3.78
2023-06-30T21:34:07.130Z,4.05
2023-06-30T21:36:36.499Z,4.47
2023-06-30T21:39:05.765Z,4.07
2023-06-30T21:41:32.984Z,3.90
2023-06-30T21:44:00.329Z,4.00
2023-06-30T21:46:27.538Z,4.30
2023-06-30T21:48:54.864Z,4.43
2023-06-30T21:51:21.997Z,4.15
2023-06-30T21:53:52.427Z,4.00
2023-06-30T21:56:19.551Z,4.05
2023-06-30T21:58:46.744Z,4.30
2023-06-30T22:01:15.197Z,4.30
2023-06-30T22:03:45.237Z,4.70
2023-06-30T22:06:12.461Z,4.80
2023-06-30T22:08:39.538Z,4.40
2023-06-30T22:11:06.683Z,5.45
2023-06-30T22:13:35.300Z,5.25
2023-06-30T22:16:02.426Z,5.63
2023-06-30T22:18:30.007Z,5.18
2023-06-30T22:20:57.202Z,5.78
2023-06-30T22:23:24.247Z,5.63
2023-06-30T22:25:51.442Z,5.68
2023-06-30T22:28:18.529Z,5.57
2023-06-30T22:30:46.035Z,6.18
2023-06-30T22:33:13.427Z,6.47
2023-06-30T22:35:42.889Z,6.35
2023-06-30T22:38:10.116Z,5.93
2023-06-30T22:40:37.214Z,5.35
2023-06-30T22:43:04.464Z,6.10
2023-06-30T22:45:31.703Z,5.65
2023-06-30T22:47:58.838Z,6.22
2023-06-30T22:50:26.006Z,5.82
2023-06-30T22:52:53.032Z,6.22
2023-06-30T22:55:20.135Z,5.40
2023-06-30T22:57:47.187Z,4.82
2023-06-30T23:00:15.019Z,5.45
2023-06-30T23:02:42.074Z,5.60
2023-06-30T23:05:10.580Z,5.30
2023-06-30T23:07:37.642Z,5.65
2023-06-30T23:10:05.031Z,5.28
2023-06-30T23:12:32.131Z,5.43
2023-06-30T23:14:59.136Z,5.18
2023-06-30T23:17:28.104Z,5.47
2023-06-30T23:19:55.554Z,5.68
2023-06-30T23:22:26.929Z,5.55
2023-06-30T23:24:54.031Z,6.00
2023-06-30T23:27:24.610Z,5.25
2023-06-30T23:29:52.022Z,6.15
2023-06-30T23:32:22.421Z,5.82
2023-06-30T23:34:50.633Z,6.35
2023-06-30T23:37:19.021Z,6.00
2023-06-30T23:39:51.591Z,6.53
2023-06-30T23:42:19.260Z,5.90
2023-06-30T23:44:46.500Z,7.15
2023-06-30T23:47:16.357Z,6.57
2023-06-30T23:49:43.631Z,6.53
2023-06-30T23:52:10.867Z,6.72
2023-06-30T23:54:37.963Z,6.18
2023-06-30T23:57:05.831Z,6.75
2023-06-30T23:59:33.057Z,7.43
